createdAt,value
2018-11-13T00:00:14.623Z,7.70
2018-11-13T00:02:45.764Z,7.70
2018-11-13T00:05:16.806Z,7.70
2018-11-13T00:07:48.340Z,7.70
2018-11-13T00:10:20.041Z,7.70
2018-11-13T00:12:50.943Z,7.70
2018-11-13T00:15:21.855Z,7.60
2018-11-13T00:17:52.591Z,7.60
2018-11-13T00:20:23.277Z,7.60
2018-11-13T00:22:54.804Z,7.60
2018-11-13T00:25:25.832Z,7.60
2018-11-13T00:27:56.736Z,7.70
2018-11-13T00:30:27.645Z,7.70
2018-11-13T00:32:59.349Z,7.70
2018-11-13T00:35:30.028Z,7.70
2018-11-13T00:38:00.961Z,7.80
2018-11-13T00:40:31.735Z,7.80
2018-11-13T00:43:02.562Z,7.80
2018-11-13T00:45:33.293Z,7.80
2018-11-13T00:48:04.126Z,7.80
2018-11-13T00:50:34.940Z,7.70
2018-11-13T00:53:06.674Z,7.70
2018-11-13T00:55:37.467Z,7.60
2018-11-13T00:58:08.285Z,7.60
2018-11-13T01:00:38.802Z,7.60
2018-11-13T01:03:09.676Z,7.50
2018-11-13T01:05:40.390Z,7.50
2018-11-13T01:08:11.000Z,7.50
2018-11-13T01:10:41.978Z,7.50
2018-11-13T01:13:12.713Z,7.50
2018-11-13T01:15:43.461Z,7.50
2018-11-13T01:18:14.234Z,7.50
2018-11-13T01:20:44.942Z,7.50
2018-11-13T01:23:15.725Z,7.50
2018-11-13T01:25:46.591Z,7.50
2018-11-13T01:28:17.326Z,7.50
2018-11-13T01:30:48.003Z,7.50
2018-11-13T01:33:19.252Z,7.60
2018-11-13T01:35:50.036Z,7.50
2018-11-13T01:38:20.817Z,7.60
2018-11-13T01:40:51.740Z,7.60
2018-11-13T01:43:22.535Z,7.70
2018-11-13T01:45:53.120Z,7.70
2018-11-13T01:48:24.171Z,7.70
2018-11-13T01:50:54.921Z,7.70
2018-11-13T01:53:25.789Z,7.70
2018-11-13T01:55:56.643Z,7.70
2018-11-13T01:58:27.344Z,7.80
2018-11-13T02:00:58.298Z,7.80
2018-11-13T02:03:29.361Z,7.70
2018-11-13T02:06:00.260Z,7.80
2018-11-13T02:08:30.941Z,7.80
2018-11-13T02:11:01.765Z,7.80
2018-11-13T02:13:32.480Z,7.80
2018-11-13T02:16:04.348Z,7.80
2018-11-13T02:18:34.869Z,7.80
2018-11-13T02:21:05.850Z,7.80
2018-11-13T02:23:36.647Z,7.80
2018-11-13T02:26:07.817Z,7.90
2018-11-13T02:28:38.658Z,7.90
2018-11-13T02:31:09.476Z,7.90
2018-11-13T02:33:40.377Z,8.00
2018-11-13T02:36:11.438Z,8.00
2018-11-13T02:38:42.344Z,8.10
2018-11-13T02:41:13.367Z,8.10
2018-11-13T02:43:44.259Z,8.10
2018-11-13T02:46:14.902Z,8.20
2018-11-13T02:48:45.909Z,8.20
2018-11-13T02:51:16.605Z,8.20
2018-11-13T02:53:47.533Z,8.20
2018-11-13T02:56:18.412Z,8.10
2018-11-13T02:58:49.114Z,8.10
2018-11-13T03:01:19.829Z,8.20
2018-11-13T03:03:50.661Z,8.20
2018-11-13T03:06:21.621Z,8.10
2018-11-13T03:08:52.728Z,8.10
2018-11-13T03:11:23.699Z,8.10
2018-11-13T03:13:54.961Z,8.10
2018-11-13T03:16:25.923Z,8.00
2018-11-13T03:18:56.869Z,8.00
2018-11-13T03:21:27.656Z,8.00
2018-11-13T03:23:58.588Z,7.90
2018-11-13T03:26:29.557Z,7.90
2018-11-13T03:29:00.776Z,7.90
2018-11-13T03:31:31.613Z,8.00
2018-11-13T03:34:02.752Z,8.00
2018-11-13T03:36:33.613Z,8.10
2018-11-13T03:39:05.255Z,8.10
2018-11-13T03:41:36.342Z,8.10
2018-11-13T03:44:08.314Z,8.10
2018-11-13T03:46:39.572Z,8.10
2018-11-13T03:49:10.235Z,8.00
2018-11-13T03:51:42.339Z,8.00
2018-11-13T03:54:13.191Z,7.90
2018-11-13T03:56:44.465Z,7.90
2018-11-13T03:59:15.530Z,7.90
2018-11-13T04:01:46.236Z,7.80
2018-11-13T04:04:17.073Z,7.80
2018-11-13T04:06:47.909Z,7.80
2018-11-13T04:09:18.813Z,7.80
2018-11-13T04:11:49.746Z,7.80
2018-11-13T04:14:20.729Z,7.80
2018-11-13T04:16:51.511Z,7.90
2018-11-13T04:19:22.203Z,7.80
2018-11-13T04:22:00.028Z,7.80
2018-11-13T04:24:30.710Z,7.80
2018-11-13T04:27:02.236Z,7.80
2018-11-13T04:29:32.998Z,7.80
2018-11-13T04:32:03.828Z,7.80
2018-11-13T04:34:34.680Z,7.80
2018-11-13T04:37:05.374Z,7.80
2018-11-13T04:39:36.203Z,7.80
2018-11-13T04:42:07.619Z,7.80
2018-11-13T04:44:38.503Z,7.80
2018-11-13T04:47:09.644Z,7.80
2018-11-13T04:49:40.702Z,7.80
2018-11-13T04:52:11.424Z,7.80
2018-11-13T04:54:42.244Z,7.80
2018-11-13T04:57:13.234Z,7.80
2018-11-13T04:59:44.118Z,7.80
2018-11-13T05:02:14.933Z,7.80
2018-11-13T05:04:45.919Z,7.80
2018-11-13T05:07:16.802Z,8.00
2018-11-13T05:09:47.839Z,7.90
2018-11-13T05:12:18.567Z,7.90
2018-11-13T05:14:49.587Z,7.90
2018-11-13T05:17:20.521Z,7.90
2018-11-13T05:19:51.445Z,7.90
2018-11-13T05:22:22.200Z,7.90
2018-11-13T05:24:53.185Z,7.80
2018-11-13T05:27:24.044Z,7.90
2018-11-13T05:29:54.934Z,7.80
2018-11-13T05:32:26.125Z,7.80
2018-11-13T05:34:56.944Z,7.80
2018-11-13T05:37:27.744Z,7.80
2018-11-13T05:39:59.372Z,7.80
2018-11-13T05:42:30.437Z,7.80
2018-11-13T05:45:01.765Z,7.80
2018-11-13T05:47:32.566Z,7.80
2018-11-13T05:50:03.748Z,7.80
2018-11-13T05:52:34.548Z,7.80
2018-11-13T05:55:05.581Z,7.80
2018-11-13T05:57:36.720Z,7.80
2018-11-13T06:00:13.677Z,7.80
2018-11-13T06:02:44.567Z,7.70
2018-11-13T06:05:15.957Z,7.70
2018-11-13T06:07:46.949Z,7.70
2018-11-13T06:10:17.986Z,7.70
2018-11-13T06:12:48.907Z,7.70
2018-11-13T06:15:19.884Z,7.70
2018-11-13T06:17:50.825Z,7.70
2018-11-13T06:20:21.532Z,7.60
2018-11-13T06:22:52.934Z,7.60
2018-11-13T06:25:23.726Z,7.60
2018-11-13T06:27:54.743Z,7.60
2018-11-13T06:30:26.273Z,7.70
2018-11-13T06:32:57.166Z,7.70
2018-11-13T06:35:28.380Z,7.70
2018-11-13T06:37:59.308Z,7.80
2018-11-13T06:40:30.388Z,7.80
2018-11-13T06:43:01.397Z,7.90
2018-11-13T06:45:33.237Z,8.00
2018-11-13T06:48:04.115Z,8.10
2018-11-13T06:50:35.217Z,8.20
2018-11-13T06:53:06.227Z,8.30
2018-11-13T06:55:39.652Z,8.40
2018-11-13T06:58:10.444Z,8.50
2018-11-13T07:00:41.624Z,8.50
2018-11-13T07:03:12.699Z,8.60
2018-11-13T07:05:43.504Z,8.60
2018-11-13T07:08:14.914Z,8.70
2018-11-13T07:10:45.887Z,8.70
2018-11-13T07:13:16.780Z,8.80
2018-11-13T07:15:47.631Z,8.80
2018-11-13T07:18:18.516Z,8.80
2018-11-13T07:20:49.256Z,8.90
2018-11-13T07:23:20.091Z,9.00
2018-11-13T07:25:51.082Z,9.00
2018-11-13T07:28:22.158Z,9.00
2018-11-13T07:30:53.289Z,9.10
2018-11-13T07:33:24.156Z,9.10
2018-11-13T07:35:55.139Z,9.10
2018-11-13T07:38:26.114Z,9.10
2018-11-13T07:40:57.166Z,9.20
2018-11-13T07:43:28.119Z,9.20
2018-11-13T07:45:59.523Z,9.30
2018-11-13T07:48:30.646Z,9.30
2018-11-13T07:51:01.508Z,9.40
2018-11-13T07:53:32.263Z,9.40
2018-11-13T07:56:03.343Z,9.50
2018-11-13T07:58:34.391Z,9.50
2018-11-13T08:01:05.424Z,9.50
2018-11-13T08:03:38.120Z,9.60
2018-11-13T08:06:08.978Z,9.60
2018-11-13T08:08:39.901Z,9.60
2018-11-13T08:11:10.996Z,9.50
2018-11-13T08:13:42.710Z,9.60
2018-11-13T08:16:13.704Z,9.60
2018-11-13T08:18:46.076Z,9.60
2018-11-13T08:21:16.939Z,9.60
2018-11-13T08:23:48.987Z,9.70
2018-11-13T08:26:19.975Z,9.80
2018-11-13T08:28:51.145Z,9.90
2018-11-13T08:31:22.289Z,10.00
2018-11-13T08:33:53.319Z,10.10
2018-11-13T08:36:24.202Z,10.20
2018-11-13T08:38:55.009Z,10.20
2018-11-13T08:41:26.216Z,10.30
2018-11-13T08:43:56.949Z,10.40
2018-11-13T08:46:27.788Z,10.60
2018-11-13T08:48:58.910Z,10.70
2018-11-13T08:51:30.058Z,10.80
2018-11-13T08:54:01.594Z,10.90
2018-11-13T08:56:32.569Z,11.00
2018-11-13T08:59:04.016Z,11.00
2018-11-13T09:01:35.226Z,11.00
2018-11-13T09:04:06.314Z,10.90
2018-11-13T09:06:37.798Z,11.00
2018-11-13T09:09:13.505Z,11.10
2018-11-13T09:11:44.321Z,11.10
2018-11-13T09:14:14.928Z,11.10
2018-11-13T09:16:45.522Z,11.20
2018-11-13T09:19:16.187Z,11.10
2018-11-13T09:21:46.677Z,11.10
2018-11-13T09:24:17.163Z,11.10
2018-11-13T09:26:48.227Z,11.20
2018-11-13T09:29:19.832Z,11.30
2018-11-13T09:31:50.854Z,11.20
2018-11-13T09:34:22.861Z,11.30
2018-11-13T09:36:53.716Z,11.20
2018-11-13T09:39:24.805Z,11.30
2018-11-13T09:41:56.016Z,11.40
2018-11-13T09:44:27.163Z,11.40
2018-11-13T09:46:58.204Z,11.50
2018-11-13T09:49:29.490Z,11.60
2018-11-13T09:52:00.979Z,11.70
2018-11-13T09:54:33.248Z,11.80
2018-11-13T09:57:04.320Z,11.70
2018-11-13T09:59:36.445Z,11.80
2018-11-13T10:02:08.991Z,11.80
2018-11-13T10:04:41.022Z,11.80
2018-11-13T10:07:13.630Z,11.90
2018-11-13T10:09:44.719Z,11.90
2018-11-13T10:12:16.438Z,11.90
2018-11-13T10:14:47.315Z,11.90
2018-11-13T10:17:19.301Z,12.00
2018-11-13T10:19:50.129Z,12.10
2018-11-13T10:22:21.206Z,12.10
2018-11-13T10:24:52.878Z,12.20
2018-11-13T10:27:24.096Z,12.20
2018-11-13T10:29:55.334Z,12.20
2018-11-13T10:32:26.959Z,12.40
2018-11-13T10:34:58.021Z,12.40
2018-11-13T10:37:30.209Z,12.40
2018-11-13T10:40:01.977Z,12.40
2018-11-13T10:42:33.555Z,12.40
2018-11-13T10:45:05.653Z,12.40
2018-11-13T10:47:37.307Z,12.30
2018-11-13T10:50:13.200Z,12.20
2018-11-13T10:52:45.217Z,12.20
2018-11-13T10:55:16.502Z,12.10
2018-11-13T10:57:47.536Z,12.10
2018-11-13T11:00:24.557Z,12.10
2018-11-13T11:03:01.424Z,12.20
2018-11-13T11:05:32.654Z,12.30
2018-11-13T11:08:05.012Z,12.30
2018-11-13T11:10:36.505Z,12.50
2018-11-13T11:13:07.865Z,12.50
2018-11-13T11:15:39.572Z,12.40
2018-11-13T11:18:11.254Z,12.50
2018-11-13T11:20:42.747Z,12.60
2018-11-13T11:23:15.174Z,12.70
2018-11-13T11:25:46.550Z,12.70
2018-11-13T11:28:17.515Z,12.60
2018-11-13T11:30:48.543Z,12.60
2018-11-13T11:33:19.406Z,12.70
2018-11-13T11:35:50.261Z,12.70
2018-11-13T11:38:21.281Z,12.70
2018-11-13T11:40:52.210Z,12.70
2018-11-13T11:43:23.260Z,12.70
2018-11-13T11:45:54.401Z,12.80
2018-11-13T11:48:26.624Z,12.80
2018-11-13T11:50:57.605Z,12.80
2018-11-13T11:53:30.356Z,12.90
2018-11-13T11:56:01.772Z,13.00
2018-11-13T11:58:32.755Z,13.10
2018-11-13T12:01:03.472Z,13.10
2018-11-13T12:03:34.311Z,13.10
2018-11-13T12:06:04.739Z,13.10
2018-11-13T12:08:35.374Z,13.20
2018-11-13T12:11:06.703Z,13.20
2018-11-13T12:13:37.128Z,13.30
2018-11-13T12:16:07.938Z,13.30
2018-11-13T12:18:40.010Z,13.40
2018-11-13T12:21:10.988Z,13.40
2018-11-13T12:23:42.241Z,13.40
2018-11-13T12:26:13.110Z,13.40
2018-11-13T12:28:44.236Z,13.40
2018-11-13T12:31:15.296Z,13.30
2018-11-13T12:33:46.190Z,13.20
2018-11-13T12:36:17.454Z,13.20
2018-11-13T12:38:48.231Z,13.20
2018-11-13T12:41:20.607Z,13.30
2018-11-13T12:43:51.559Z,13.40
2018-11-13T12:46:22.340Z,13.40
2018-11-13T12:48:53.232Z,13.40
2018-11-13T12:51:28.907Z,13.40
2018-11-13T12:54:00.420Z,13.40
2018-11-13T12:56:31.424Z,13.30
2018-11-13T12:59:01.935Z,13.30
2018-11-13T13:01:32.635Z,13.00
2018-11-13T13:04:04.336Z,13.20
2018-11-13T13:06:36.224Z,13.30
2018-11-13T13:09:09.694Z,13.30
2018-11-13T13:11:40.741Z,13.30
2018-11-13T13:14:14.481Z,13.20
2018-11-13T13:16:45.649Z,13.30
2018-11-13T13:19:16.415Z,13.40
2018-11-13T13:21:47.849Z,13.40
2018-11-13T13:24:19.009Z,13.50
2018-11-13T13:26:50.984Z,13.40
2018-11-13T13:29:22.345Z,13.30
2018-11-13T13:31:54.032Z,13.20
2018-11-13T13:34:25.105Z,13.20
2018-11-13T13:36:56.008Z,13.20
2018-11-13T13:39:27.118Z,13.30
2018-11-13T13:41:58.458Z,13.20
2018-11-13T13:44:29.953Z,13.20
2018-11-13T13:47:00.936Z,13.30
2018-11-13T13:49:33.023Z,13.20
2018-11-13T13:52:03.566Z,13.20
2018-11-13T13:54:34.838Z,13.30
2018-11-13T13:57:05.898Z,13.30
2018-11-13T13:59:36.745Z,13.30
2018-11-13T14:02:07.501Z,13.20
2018-11-13T14:04:39.401Z,13.20
2018-11-13T14:07:10.752Z,13.20
2018-11-13T14:09:41.562Z,13.20
2018-11-13T14:12:12.602Z,13.20
2018-11-13T14:14:43.327Z,13.20
2018-11-13T14:17:13.936Z,13.20
2018-11-13T14:19:45.151Z,13.20
2018-11-13T14:22:16.039Z,13.10
2018-11-13T14:24:46.751Z,13.00
2018-11-13T14:27:17.937Z,13.00
2018-11-13T14:29:48.478Z,13.00
2018-11-13T14:32:19.144Z,13.00
2018-11-13T14:34:49.802Z,13.00
2018-11-13T14:37:20.436Z,13.10
2018-11-13T14:39:52.382Z,13.00
2018-11-13T14:42:23.554Z,13.00
2018-11-13T14:44:55.036Z,13.00
2018-11-13T14:47:25.945Z,13.00
2018-11-13T14:49:57.169Z,13.00
2018-11-13T14:52:28.608Z,13.00
2018-11-13T14:54:59.962Z,12.90
2018-11-13T14:57:30.896Z,12.80
2018-11-13T15:00:02.291Z,12.80
2018-11-13T15:02:33.541Z,12.80
2018-11-13T15:05:04.660Z,12.80
2018-11-13T15:07:35.208Z,12.70
2018-11-13T15:10:08.359Z,12.60
2018-11-13T15:12:39.058Z,12.60
2018-11-13T15:15:10.546Z,12.50
2018-11-13T15:17:42.121Z,12.50
2018-11-13T15:20:16.202Z,12.50
2018-11-13T15:22:47.343Z,12.50
2018-11-13T15:25:18.574Z,12.50
2018-11-13T15:27:49.810Z,12.50
2018-11-13T15:30:25.774Z,12.50
2018-11-13T15:33:01.673Z,12.50
2018-11-13T15:35:32.436Z,12.40
2018-11-13T15:38:03.229Z,12.40
2018-11-13T15:40:34.689Z,12.40
2018-11-13T15:43:05.977Z,12.40
2018-11-13T15:45:37.368Z,12.30
2018-11-13T15:48:10.387Z,12.30
2018-11-13T15:50:41.778Z,12.30
2018-11-13T15:53:13.170Z,12.30
2018-11-13T15:55:44.120Z,12.30
2018-11-13T15:58:14.987Z,12.30
2018-11-13T16:00:46.272Z,12.30
2018-11-13T16:03:28.895Z,12.20
2018-11-13T16:05:59.982Z,12.20
2018-11-13T16:08:31.687Z,12.20
2018-11-13T16:11:04.192Z,12.20
2018-11-13T16:13:35.795Z,12.20
2018-11-13T16:16:07.732Z,12.10
2018-11-13T16:18:39.676Z,12.10
2018-11-13T16:21:12.184Z,12.10
2018-11-13T16:23:44.389Z,12.10
2018-11-13T16:26:15.935Z,12.10
2018-11-13T16:28:47.755Z,12.10
2018-11-13T16:31:19.613Z,12.00
2018-11-13T16:33:51.840Z,12.00
2018-11-13T16:36:23.343Z,12.10
2018-11-13T16:38:55.670Z,12.10
2018-11-13T16:41:28.163Z,12.10
2018-11-13T16:44:00.667Z,12.00
2018-11-13T16:46:33.610Z,12.00
2018-11-13T16:49:06.383Z,12.10
2018-11-13T16:51:39.048Z,12.10
2018-11-13T16:54:11.977Z,12.10
2018-11-13T16:56:48.163Z,12.00
2018-11-13T16:59:20.686Z,12.00
2018-11-13T17:01:53.439Z,12.00
2018-11-13T17:04:26.324Z,12.00
2018-11-13T17:06:58.878Z,11.90
2018-11-13T17:09:30.760Z,11.90
2018-11-13T17:12:03.372Z,11.90
2018-11-13T17:14:35.330Z,11.90
2018-11-13T17:17:08.618Z,11.80
2018-11-13T17:19:40.723Z,11.90
2018-11-13T17:22:12.881Z,11.80
2018-11-13T17:24:44.875Z,11.80
2018-11-13T17:27:17.808Z,11.80
2018-11-13T17:29:49.584Z,11.70
2018-11-13T17:32:22.188Z,11.70
2018-11-13T17:34:53.757Z,11.70
2018-11-13T17:37:27.523Z,11.70
2018-11-13T17:39:57.945Z,11.70
2018-11-13T17:42:31.176Z,11.70
2018-11-13T17:45:03.981Z,11.70
2018-11-13T17:47:36.539Z,11.60
2018-11-13T17:50:14.567Z,11.60
2018-11-13T17:52:47.879Z,11.60
2018-11-13T17:55:21.175Z,11.50
2018-11-13T17:57:55.185Z,11.50
2018-11-13T18:00:30.593Z,11.40
2018-11-13T18:03:03.894Z,11.40
2018-11-13T18:05:37.056Z,11.40
2018-11-13T18:08:10.516Z,11.30
2018-11-13T18:10:44.453Z,11.30
2018-11-13T18:13:17.502Z,11.20
2018-11-13T18:15:49.979Z,11.20
2018-11-13T18:18:24.425Z,11.20
2018-11-13T18:20:57.369Z,11.10
2018-11-13T18:23:29.949Z,11.10
2018-11-13T18:26:02.423Z,11.10
2018-11-13T18:28:35.016Z,11.20
2018-11-13T18:31:07.826Z,11.20
2018-11-13T18:33:40.506Z,11.20
2018-11-13T18:36:13.132Z,11.10
2018-11-13T18:38:45.821Z,11.10
2018-11-13T18:41:18.256Z,11.10
2018-11-13T18:43:53.370Z,11.10
2018-11-13T18:46:26.795Z,11.00
2018-11-13T18:48:59.642Z,11.00
2018-11-13T18:51:32.213Z,10.90
2018-11-13T18:54:05.404Z,10.80
2018-11-13T18:56:38.751Z,10.70
2018-11-13T18:59:12.520Z,10.60
2018-11-13T19:01:46.665Z,10.50
2018-11-13T19:04:19.999Z,10.40
2018-11-13T19:06:53.525Z,10.40
2018-11-13T19:09:27.418Z,10.20
2018-11-13T19:11:59.879Z,10.20
2018-11-13T19:14:35.866Z,10.20
2018-11-13T19:17:09.598Z,10.10
2018-11-13T19:19:43.516Z,10.10
2018-11-13T19:22:17.480Z,10.10
2018-11-13T19:24:51.217Z,10.10
2018-11-13T19:27:26.388Z,10.20
2018-11-13T19:29:59.739Z,10.20
2018-11-13T19:32:33.001Z,10.10
2018-11-13T19:35:08.140Z,10.10
2018-11-13T19:37:42.108Z,10.10
2018-11-13T19:40:25.473Z,10.00
2018-11-13T19:43:03.089Z,10.00
2018-11-13T19:45:44.742Z,10.00
2018-11-13T19:48:18.587Z,10.00
2018-11-13T19:50:53.488Z,10.10
2018-11-13T19:53:26.442Z,10.10
2018-11-13T19:56:02.398Z,10.20
2018-11-13T19:58:36.056Z,10.20
2018-11-13T20:01:09.300Z,10.20
2018-11-13T20:03:43.200Z,10.10
2018-11-13T20:06:17.142Z,10.00
2018-11-13T20:08:51.129Z,10.00
2018-11-13T20:11:24.317Z,9.90
2018-11-13T20:13:59.723Z,9.90
2018-11-13T20:16:36.230Z,9.90
2018-11-13T20:19:10.680Z,9.80
2018-11-13T20:21:44.144Z,9.80
2018-11-13T20:24:17.544Z,9.70
2018-11-13T20:26:50.548Z,9.60
2018-11-13T20:29:25.040Z,9.60
2018-11-13T20:32:00.039Z,9.60
2018-11-13T20:34:33.636Z,9.50
2018-11-13T20:37:07.385Z,9.50
2018-11-13T20:39:42.338Z,9.50
2018-11-13T20:42:16.231Z,9.60
2018-11-13T20:44:49.880Z,9.70
2018-11-13T20:47:23.418Z,9.80
2018-11-13T20:49:56.112Z,9.80
2018-11-13T20:52:30.796Z,9.90
2018-11-13T20:55:03.793Z,9.90
2018-11-13T20:57:38.278Z,9.90
2018-11-13T21:00:15.584Z,9.90
2018-11-13T21:02:50.207Z,9.90
2018-11-13T21:05:23.571Z,9.90
2018-11-13T21:07:57.525Z,9.90
2018-11-13T21:10:40.360Z,9.90
2018-11-13T21:13:13.627Z,9.90
2018-11-13T21:15:47.442Z,9.90
2018-11-13T21:18:20.257Z,9.90
2018-11-13T21:20:55.639Z,9.90
2018-11-13T21:23:30.354Z,9.90
2018-11-13T21:26:05.758Z,9.80
2018-11-13T21:28:41.289Z,9.80
2018-11-13T21:31:14.384Z,9.90
2018-11-13T21:33:48.971Z,9.90
2018-11-13T21:36:24.608Z,9.80
2018-11-13T21:38:58.287Z,9.80
2018-11-13T21:41:32.663Z,9.80
2018-11-13T21:44:05.351Z,9.70
2018-11-13T21:46:40.343Z,9.70
2018-11-13T21:49:13.739Z,9.80
2018-11-13T21:51:46.481Z,9.70
2018-11-13T21:54:19.806Z,9.70
2018-11-13T21:56:53.007Z,9.70
2018-11-13T21:59:26.882Z,9.70
2018-11-13T22:01:59.969Z,9.70
2018-11-13T22:04:33.254Z,9.70
2018-11-13T22:07:05.955Z,9.60
2018-11-13T22:09:38.406Z,9.60
2018-11-13T22:12:11.512Z,9.50
2018-11-13T22:14:45.634Z,9.40
2018-11-13T22:17:19.013Z,9.30
2018-11-13T22:19:51.433Z,9.20
2018-11-13T22:22:24.465Z,9.10
2018-11-13T22:24:56.430Z,9.00
2018-11-13T22:27:28.687Z,9.00
2018-11-13T22:30:02.353Z,8.90
2018-11-13T22:32:34.202Z,8.90
2018-11-13T22:35:06.589Z,9.00
2018-11-13T22:37:39.395Z,9.00
2018-11-13T22:40:16.315Z,9.10
2018-11-13T22:42:48.580Z,9.30
2018-11-13T22:45:24.203Z,9.40
2018-11-13T22:47:56.789Z,9.40
2018-11-13T22:50:31.212Z,9.40
2018-11-13T22:53:02.386Z,9.40
2018-11-13T22:55:34.560Z,9.40
2018-11-13T22:58:05.903Z,9.50
2018-11-13T23:00:46.339Z,9.50
2018-11-13T23:03:19.121Z,9.50
2018-11-13T23:05:50.844Z,9.50
2018-11-13T23:08:22.594Z,9.50
2018-11-13T23:10:53.955Z,9.50
2018-11-13T23:13:25.550Z,9.50
2018-11-13T23:15:56.888Z,9.50
2018-11-13T23:18:28.809Z,9.30
2018-11-13T23:20:59.728Z,9.30
2018-11-13T23:23:30.868Z,9.30
2018-11-13T23:26:02.716Z,9.30
2018-11-13T23:28:33.996Z,9.30
2018-11-13T23:31:05.019Z,9.40
2018-11-13T23:33:36.333Z,9.40
2018-11-13T23:36:08.147Z,9.30
2018-11-13T23:38:39.288Z,9.20
2018-11-13T23:41:10.179Z,9.20
2018-11-13T23:43:40.960Z,9.20
2018-11-13T23:46:12.073Z,9.20
2018-11-13T23:48:43.085Z,9.20
2018-11-13T23:51:14.022Z,9.30
2018-11-13T23:53:44.866Z,9.40
2018-11-13T23:56:15.540Z,9.40
2018-11-13T23:58:46.511Z,9.40
